Time;durP1;ratioP1;P1;durP2;ratioP2;P2;SDS_P1;SDS_P2;PMS_P1;PMS_P2;Temp;Humidity;BMP_temperature;BMP_pressure;BME280_temperature;BME280_humidity;BME280_pressure;Samples;Min_cycle;Max_cycle;Signal;HPM_P1;HPM_P2
2022/01/13 00:00:57;;;;;;;;;;;21.70;45.20;;;;;;5113007;28;20380;-42
2022/01/13 00:03:24;;;;;;;;;;;21.70;45.20;;;;;;5112907;28;19924;-45
2022/01/13 00:05:52;;;;;;;;;;;21.70;45.20;;;;;;5113479;28;20287;-45
2022/01/13 00:08:19;;;;;;;;;;;21.70;45.20;;;;;;5112987;28;19924;-41
2022/01/13 00:10:46;;;;;;;;;;;21.70;45.20;;;;;;5113984;28;20401;-45
2022/01/13 00:13:22;;;;;;;;;;;21.60;45.20;;;;;;5113812;28;19931;-43
2022/01/13 00:16:01;;;;;;;;;;;21.70;45.30;;;;;;5114031;28;19924;-43
2022/01/13 00:18:40;;;;;;;;;;;21.70;45.30;;;;;;5115913;28;19972;-44
2022/01/13 00:21:31;;;;;;;;;;;21.60;45.30;;;;;;5131817;27;19931;-41
2022/01/13 00:24:03;;;;;;;;;;;21.60;45.20;;;;;;5119565;27;20267;-43
2022/01/13 00:26:32;;;;;;;;;;;21.60;45.20;;;;;;5119619;27;19923;-41
2022/01/13 00:29:02;;;;;;;;;;;21.60;45.20;;;;;;5117782;27;19924;-40
2022/01/13 00:31:33;;;;;;;;;;;21.60;45.20;;;;;;5120944;27;19924;-40
2022/01/13 00:34:02;;;;;;;;;;;21.60;45.30;;;;;;5130706;27;19931;-41
2022/01/13 00:36:31;;;;;;;;;;;21.60;45.20;;;;;;5117790;27;19931;-41
2022/01/13 00:38:58;;;;;;;;;;;21.60;45.30;;;;;;5118258;27;19924;-43
2022/01/13 00:41:27;;;;;;;;;;;21.60;45.30;;;;;;5119271;27;20282;-40
2022/01/13 00:43:56;;;;;;;;;;;21.60;45.30;;;;;;5118638;27;19923;-41
2022/01/13 00:46:26;;;;;;;;;;;21.60;45.30;;;;;;5119447;27;20332;-44
2022/01/13 00:48:54;;;;;;;;;;;21.60;45.30;;;;;;5100912;27;20015;-40
2022/01/13 00:51:22;;;;;;;;;;;21.60;45.40;;;;;;5116474;28;19924;-39
2022/01/13 00:53:50;;;;;;;;;;;21.60;45.30;;;;;;5116846;27;20345;-40
2022/01/13 00:56:17;;;;;;;;;;;21.60;45.30;;;;;;5117545;27;19928;-40
2022/01/13 00:58:45;;;;;;;;;;;21.60;45.30;;;;;;5097960;28;20398;-41
2022/01/13 01:01:12;;;;;;;;;;;21.60;45.30;;;;;;5119731;27;19969;-43
2022/01/13 01:03:39;;;;;;;;;;;21.60;45.30;;;;;;5117266;27;19924;-40
2022/01/13 01:06:06;;;;;;;;;;;21.60;45.40;;;;;;5117208;27;19927;-40
2022/01/13 01:08:33;;;;;;;;;;;21.60;45.40;;;;;;5117212;27;19949;-42
2022/01/13 01:11:02;;;;;;;;;;;21.60;45.40;;;;;;5115821;28;19924;-39
2022/01/13 01:13:32;;;;;;;;;;;21.60;45.40;;;;;;5119924;27;19947;-41
2022/01/13 01:16:02;;;;;;;;;;;21.60;45.40;;;;;;5117120;27;19924;-41
2022/01/13 01:18:37;;;;;;;;;;;21.60;45.40;;;;;;5115911;28;20336;-42
2022/01/13 01:23:38;;;;;;;;;;;21.60;45.40;;;;;;5134783;27;19962;-42
2022/01/13 01:26:30;;;;;;;;;;;21.60;45.40;;;;;;5118827;27;20425;-41
2022/01/13 01:31:47;;;;;;;;;;;21.50;45.40;;;;;;5117479;27;19931;-40
2022/01/13 01:37:01;;;;;;;;;;;21.50;45.40;;;;;;5131327;27;19949;-39
2022/01/13 01:39:28;;;;;;;;;;;21.50;45.40;;;;;;5121021;27;20018;-42
2022/01/13 01:41:56;;;;;;;;;;;21.50;45.40;;;;;;5117010;27;19928;-39
2022/01/13 01:44:34;;;;;;;;;;;21.50;45.40;;;;;;5115521;28;20326;-41
2022/01/13 01:47:02;;;;;;;;;;;21.50;45.40;;;;;;5116909;27;19931;-39
2022/01/13 01:49:32;;;;;;;;;;;21.50;45.40;;;;;;5115843;27;19930;-40
2022/01/13 01:52:00;;;;;;;;;;;21.50;45.40;;;;;;5114970;28;20705;-41
2022/01/13 01:54:27;;;;;;;;;;;21.50;45.40;;;;;;5116178;27;19928;-41
2022/01/13 01:56:54;;;;;;;;;;;21.50;45.40;;;;;;5116566;27;19947;-39
2022/01/13 01:59:25;;;;;;;;;;;21.50;45.40;;;;;;5097188;28;19923;-40
2022/01/13 02:01:53;;;;;;;;;;;21.50;45.60;;;;;;5115090;28;19930;-40
2022/01/13 02:04:20;;;;;;;;;;;21.50;45.40;;;;;;5115256;28;19928;-39
2022/01/13 02:06:48;;;;;;;;;;;21.50;45.50;;;;;;5114932;28;19924;-39
2022/01/13 02:09:17;;;;;;;;;;;21.50;45.50;;;;;;5120257;27;19969;-40
2022/01/13 02:11:47;;;;;;;;;;;21.50;45.50;;;;;;5128238;27;19928;-41
2022/01/13 02:14:33;;;;;;;;;;;21.50;45.50;;;;;;5121486;27;19980;-40
2022/01/13 02:17:08;;;;;;;;;;;21.50;45.50;;;;;;5128231;27;19950;-40
2022/01/13 02:19:40;;;;;;;;;;;21.50;45.50;;;;;;5117171;27;20040;-42
2022/01/13 02:22:07;;;;;;;;;;;21.50;45.50;;;;;;5114325;28;19931;-41
2022/01/13 02:24:34;;;;;;;;;;;21.50;45.50;;;;;;5115494;27;19924;-39
2022/01/13 02:27:02;;;;;;;;;;;21.50;45.50;;;;;;5119638;27;19923;-40
2022/01/13 02:29:29;;;;;;;;;;;21.50;45.50;;;;;;5128868;27;19924;-39
2022/01/13 02:31:57;;;;;;;;;;;21.50;45.50;;;;;;5114665;28;19923;-40
2022/01/13 02:34:24;;;;;;;;;;;21.50;45.50;;;;;;5117083;27;19923;-40
2022/01/13 02:36:55;;;;;;;;;;;21.50;45.60;;;;;;5116185;27;19924;-39
2022/01/13 02:39:29;;;;;;;;;;;21.50;45.60;;;;;;5098838;27;20018;-39
2022/01/13 02:41:56;;;;;;;;;;;21.50;45.50;;;;;;5114906;27;19935;-39
2022/01/13 02:44:24;;;;;;;;;;;21.40;45.40;;;;;;5115006;27;19930;-41
2022/01/13 02:49:20;;;;;;;;;;;21.40;45.50;;;;;;5114124;28;19939;-40
2022/01/13 02:51:48;;;;;;;;;;;21.50;45.60;;;;;;5114153;28;19935;-40
2022/01/13 02:54:16;;;;;;;;;;;21.40;45.50;;;;;;5115236;27;19924;-40
2022/01/13 02:56:44;;;;;;;;;;;21.40;45.50;;;;;;5115088;28;20371;-40
2022/01/13 02:59:12;;;;;;;;;;;21.40;45.50;;;;;;5113523;28;19924;-39
2022/01/13 03:01:39;;;;;;;;;;;21.40;45.50;;;;;;5128322;27;19923;-39
2022/01/13 03:04:08;;;;;;;;;;;21.40;45.50;;;;;;5113742;28;19981;-41
2022/01/13 03:06:38;;;;;;;;;;;21.40;45.50;;;;;;5115131;27;19930;-41
2022/01/13 03:09:08;;;;;;;;;;;21.40;45.50;;;;;;5115119;27;19947;-40
2022/01/13 03:11:37;;;;;;;;;;;21.40;45.60;;;;;;5115952;27;19973;-40
2022/01/13 03:14:05;;;;;;;;;;;21.40;45.50;;;;;;5124274;27;20303;-41
2022/01/13 03:16:32;;;;;;;;;;;21.40;45.50;;;;;;5122109;27;19924;-41
2022/01/13 03:18:59;;;;;;;;;;;21.40;45.60;;;;;;5113544;28;19949;-42
2022/01/13 03:21:26;;;;;;;;;;;21.40;45.60;;;;;;5115231;27;19928;-40
2022/01/13 03:23:53;;;;;;;;;;;21.40;45.60;;;;;;5113673;28;19949;-41
2022/01/13 03:26:21;;;;;;;;;;;21.40;45.60;;;;;;5113535;28;20337;-46
2022/01/13 03:29:14;;;;;;;;;;;21.40;45.60;;;;;;5114049;28;19995;-40
2022/01/13 03:31:45;;;;;;;;;;;21.40;45.60;;;;;;5114832;28;19971;-44
2022/01/13 03:34:13;;;;;;;;;;;21.40;45.60;;;;;;5114241;28;19924;-40
2022/01/13 03:36:41;;;;;;;;;;;21.40;45.60;;;;;;5116137;27;19924;-39
2022/01/13 03:39:09;;;;;;;;;;;21.40;45.60;;;;;;5113482;28;19992;-43
2022/01/13 03:41:36;;;;;;;;;;;21.40;45.60;;;;;;5114631;28;19923;-40
2022/01/13 03:44:15;;;;;;;;;;;21.40;45.60;;;;;;5116050;28;19985;-43
2022/01/13 03:46:42;;;;;;;;;;;21.40;45.60;;;;;;5114662;28;19967;-40
2022/01/13 03:49:09;;;;;;;;;;;21.40;45.60;;;;;;5114896;28;20298;-40
2022/01/13 03:51:52;;;;;;;;;;;21.40;45.60;;;;;;5112915;28;19999;-46
2022/01/13 03:54:32;;;;;;;;;;;21.40;45.60;;;;;;5113177;28;20399;-40
2022/01/13 03:57:22;;;;;;;;;;;21.40;45.60;;;;;;5119089;27;20010;-41
2022/01/13 03:59:57;;;;;;;;;;;21.40;45.60;;;;;;5117251;28;19967;-39
2022/01/13 04:02:28;;;;;;;;;;;21.40;45.60;;;;;;5118538;27;20418;-39
2022/01/13 04:05:00;;;;;;;;;;;21.40;45.60;;;;;;5118274;27;20329;-40
2022/01/13 04:07:32;;;;;;;;;;;21.40;45.60;;;;;;5118356;27;19923;-41
2022/01/13 04:10:03;;;;;;;;;;;21.40;45.60;;;;;;5126184;27;20014;-44
2022/01/13 04:12:31;;;;;;;;;;;21.40;45.60;;;;;;5128264;27;20403;-43
2022/01/13 04:15:01;;;;;;;;;;;21.30;45.60;;;;;;5118093;27;19924;-43
2022/01/13 04:17:28;;;;;;;;;;;21.40;45.60;;;;;;5122261;27;19957;-43
2022/01/13 04:19:55;;;;;;;;;;;21.30;45.60;;;;;;5131924;27;20341;-43
2022/01/13 04:22:23;;;;;;;;;;;21.30;45.60;;;;;;5118392;27;19923;-43
2022/01/13 04:24:51;;;;;;;;;;;21.40;45.60;;;;;;5117449;27;19994;-42
2022/01/13 04:27:26;;;;;;;;;;;21.30;45.60;;;;;;5118357;27;20018;-42
2022/01/13 04:30:22;;;;;;;;;;;21.40;45.70;;;;;;5117030;27;19932;-42
2022/01/13 04:32:40;;;;;;;;;;;21.30;45.60;;;;;;5119044;27;20291;-45
2022/01/13 04:35:09;;;;;;;;;;;21.30;45.60;;;;;;5119556;27;20030;-43
2022/01/13 04:37:37;;;;;;;;;;;21.30;45.60;;;;;;5117519;27;20328;-43
2022/01/13 04:40:05;;;;;;;;;;;21.30;45.60;;;;;;5117757;27;19924;-41
2022/01/13 04:42:36;;;;;;;;;;;21.30;45.60;;;;;;5117031;28;19962;-41
2022/01/13 04:45:03;;;;;;;;;;;21.30;45.60;;;;;;5117426;27;20022;-41
2022/01/13 04:47:30;;;;;;;;;;;21.30;45.60;;;;;;5118413;27;19924;-40
2022/01/13 04:49:58;;;;;;;;;;;21.30;45.60;;;;;;5117937;27;20022;-40
2022/01/13 04:52:24;;;;;;;;;;;21.30;45.60;;;;;;5117047;27;19924;-40
2022/01/13 04:54:51;;;;;;;;;;;21.30;45.60;;;;;;5127199;27;19924;-41
2022/01/13 04:57:18;;;;;;;;;;;21.30;45.60;;;;;;5118588;27;19923;-41
2022/01/13 04:59:46;;;;;;;;;;;21.30;45.60;;;;;;5098390;28;19923;-40
2022/01/13 05:02:16;;;;;;;;;;;21.30;45.60;;;;;;5118816;27;19967;-41
2022/01/13 05:04:43;;;;;;;;;;;21.30;45.60;;;;;;5130389;27;19923;-41
2022/01/13 05:07:11;;;;;;;;;;;21.30;46.20;;;;;;5121991;27;19978;-39
2022/01/13 05:09:38;;;;;;;;;;;21.30;45.60;;;;;;5116262;28;20325;-40
2022/01/13 05:12:05;;;;;;;;;;;21.30;45.60;;;;;;5118693;27;20317;-41
2022/01/13 05:14:32;;;;;;;;;;;21.30;45.60;;;;;;5115927;28;19978;-40
2022/01/13 05:17:07;;;;;;;;;;;21.30;45.60;;;;;;5126445;27;20010;-40
2022/01/13 05:19:40;;;;;;;;;;;21.30;45.60;;;;;;5126784;27;19924;-40
2022/01/13 05:24:40;;;;;;;;;;;21.30;45.60;;;;;;5115536;28;19923;-40
2022/01/13 05:27:08;;;;;;;;;;;21.30;45.60;;;;;;5115993;28;19949;-41
2022/01/13 05:29:35;;;;;;;;;;;21.30;45.60;;;;;;5115746;28;19992;-40
2022/01/13 05:32:02;;;;;;;;;;;21.30;45.70;;;;;;5116972;27;20024;-42
2022/01/13 05:34:29;;;;;;;;;;;21.30;45.70;;;;;;5117627;27;19930;-40
2022/01/13 05:37:11;;;;;;;;;;;21.30;45.60;;;;;;5116790;27;19924;-39
2022/01/13 05:39:38;;;;;;;;;;;21.30;45.60;;;;;;5097464;28;19980;-40
2022/01/13 05:42:05;;;;;;;;;;;21.30;45.60;;;;;;5115554;28;19938;-40
2022/01/13 05:44:38;;;;;;;;;;;21.30;45.70;;;;;;5119355;27;19973;-43
2022/01/13 05:47:07;;;;;;;;;;;21.30;45.70;;;;;;5115328;28;19948;-42
2022/01/13 05:49:34;;;;;;;;;;;21.30;45.60;;;;;;5115497;28;19924;-40
2022/01/13 05:52:01;;;;;;;;;;;21.30;45.60;;;;;;5096821;28;19932;-40
2022/01/13 05:54:28;;;;;;;;;;;21.30;45.60;;;;;;5098368;27;19970;-43
2022/01/13 05:56:55;;;;;;;;;;;21.30;45.60;;;;;;5134606;27;19966;-40
2022/01/13 05:59:23;;;;;;;;;;;21.30;45.70;;;;;;5115152;28;20414;-41
2022/01/13 06:01:50;;;;;;;;;;;21.20;45.60;;;;;;5115526;28;19924;-41
2022/01/13 06:04:18;;;;;;;;;;;21.30;45.70;;;;;;5116217;27;19947;-41
2022/01/13 06:06:45;;;;;;;;;;;21.30;45.60;;;;;;5132721;27;19923;-43
2022/01/13 06:09:12;;;;;;;;;;;21.20;45.60;;;;;;5117226;27;19930;-38
2022/01/13 06:11:51;;;;;;;;;;;21.20;45.60;;;;;;5129653;27;19923;-39
2022/01/13 06:14:18;;;;;;;;;;;21.20;45.60;;;;;;5131608;27;19927;-40
2022/01/13 06:16:45;;;;;;;;;;;21.20;45.60;;;;;;5118403;27;20337;-39
2022/01/13 06:19:12;;;;;;;;;;;21.30;45.60;;;;;;5116604;27;19967;-40
2022/01/13 06:21:39;;;;;;;;;;;21.20;45.60;;;;;;5115715;27;20299;-40
2022/01/13 06:24:06;;;;;;;;;;;21.30;45.60;;;;;;5114533;27;19971;-43
2022/01/13 06:26:33;;;;;;;;;;;21.20;45.60;;;;;;5114759;28;20367;-45
2022/01/13 06:29:00;;;;;;;;;;;21.20;45.60;;;;;;5114376;28;19950;-45
2022/01/13 06:31:27;;;;;;;;;;;21.20;45.60;;;;;;5115274;27;19935;-43
2022/01/13 06:33:54;;;;;;;;;;;21.20;45.60;;;;;;5115530;27;19931;-44
2022/01/13 06:36:21;;;;;;;;;;;21.20;45.60;;;;;;5115428;27;19924;-44
2022/01/13 06:38:50;;;;;;;;;;;21.20;45.60;;;;;;5115559;28;19927;-40
2022/01/13 06:41:18;;;;;;;;;;;21.20;45.60;;;;;;5115477;27;20014;-45
2022/01/13 06:43:45;;;;;;;;;;;21.20;45.60;;;;;;5115244;27;20371;-42
2022/01/13 06:46:12;;;;;;;;;;;21.20;45.60;;;;;;5118276;27;19928;-41
2022/01/13 06:48:39;;;;;;;;;;;21.20;45.60;;;;;;5118102;27;19931;-41
2022/01/13 06:51:06;;;;;;;;;;;21.20;45.60;;;;;;5115063;27;19923;-44
2022/01/13 06:53:33;;;;;;;;;;;21.20;45.60;;;;;;5133006;27;20010;-39
2022/01/13 06:56:00;;;;;;;;;;;21.20;45.60;;;;;;5115644;27;20319;-40
2022/01/13 06:58:28;;;;;;;;;;;21.20;45.60;;;;;;5133221;27;19976;-42
2022/01/13 07:00:54;;;;;;;;;;;21.20;45.60;;;;;;5114113;28;20006;-41
2022/01/13 07:03:22;;;;;;;;;;;21.20;45.60;;;;;;5113896;28;19931;-41
2022/01/13 07:05:50;;;;;;;;;;;21.20;45.60;;;;;;5130909;27;20011;-41
2022/01/13 07:08:17;;;;;;;;;;;21.20;45.60;;;;;;5115909;27;20347;-42
2022/01/13 07:10:45;;;;;;;;;;;21.20;45.60;;;;;;5113547;28;19963;-43
2022/01/13 07:13:12;;;;;;;;;;;21.20;45.60;;;;;;5115131;28;19927;-45
2022/01/13 07:15:39;;;;;;;;;;;21.20;45.60;;;;;;5114950;27;19977;-43
2022/01/13 07:18:07;;;;;;;;;;;21.20;45.60;;;;;;5114642;27;19923;-43
2022/01/13 07:20:34;;;;;;;;;;;21.20;45.60;;;;;;5113625;28;19923;-42
2022/01/13 07:23:01;;;;;;;;;;;21.20;45.60;;;;;;5115684;27;20010;-44
2022/01/13 07:25:28;;;;;;;;;;;21.20;45.60;;;;;;5114718;27;20373;-41
2022/01/13 07:27:55;;;;;;;;;;;21.20;45.60;;;;;;5114998;27;19924;-43
2022/01/13 07:30:22;;;;;;;;;;;21.20;45.60;;;;;;5114922;27;20389;-41
2022/01/13 07:32:49;;;;;;;;;;;21.20;45.60;;;;;;5114537;28;20454;-42
2022/01/13 07:35:16;;;;;;;;;;;21.20;45.60;;;;;;5115648;27;19924;-39
2022/01/13 07:37:43;;;;;;;;;;;21.20;45.60;;;;;;5116920;27;19923;-41
2022/01/13 07:40:13;;;;;;;;;;;21.20;45.60;;;;;;5117146;27;19923;-43
2022/01/13 07:42:42;;;;;;;;;;;21.20;45.60;;;;;;5114278;27;20086;-40
2022/01/13 07:45:10;;;;;;;;;;;21.20;45.50;;;;;;5117742;27;20282;-42
2022/01/13 07:47:37;;;;;;;;;;;21.20;45.50;;;;;;5130884;28;19938;-40
2022/01/13 07:50:05;;;;;;;;;;;21.20;45.40;;;;;;5113018;28;19963;-41
2022/01/13 07:52:32;;;;;;;;;;;21.20;45.40;;;;;;5114138;28;19931;-42
2022/01/13 07:54:59;;;;;;;;;;;21.20;46.00;;;;;;5132623;28;19924;-41
2022/01/13 07:57:26;;;;;;;;;;;21.20;45.40;;;;;;5114538;28;19924;-40
2022/01/13 07:59:53;;;;;;;;;;;21.20;45.40;;;;;;5131430;28;19927;-45
2022/01/13 08:02:27;;;;;;;;;;;21.20;45.40;;;;;;5114310;28;20011;-40
2022/01/13 08:04:57;;;;;;;;;;;21.30;45.40;;;;;;5113520;28;19977;-41
2022/01/13 08:07:24;;;;;;;;;;;21.30;45.40;;;;;;5132286;28;19927;-40
2022/01/13 08:09:51;;;;;;;;;;;21.30;45.40;;;;;;5113935;28;19970;-42
2022/01/13 08:12:18;;;;;;;;;;;21.30;45.40;;;;;;5114230;28;19924;-40
2022/01/13 08:14:45;;;;;;;;;;;21.30;45.30;;;;;;5113101;28;19973;-39
2022/01/13 08:19:45;;;;;;;;;;;21.30;45.30;;;;;;5113929;28;20026;-42
2022/01/13 08:19:58;;;;;;;;;;;21.30;45.30;;;;;;5115081;28;19931;-39
2022/01/13 08:22:25;;;;;;;;;;;21.30;45.30;;;;;;5127685;28;19930;-44
2022/01/13 08:24:52;;;;;;;;;;;21.30;45.20;;;;;;5117671;28;19959;-44
2022/01/13 08:27:19;;;;;;;;;;;21.30;45.20;;;;;;5112850;28;20001;-43
2022/01/13 08:29:46;;;;;;;;;;;21.30;45.20;;;;;;5114470;28;20325;-40
2022/01/13 08:32:14;;;;;;;;;;;21.30;45.20;;;;;;5112817;28;19966;-40
2022/01/13 08:34:41;;;;;;;;;;;21.30;45.10;;;;;;5112957;28;20272;-41
2022/01/13 08:37:08;;;;;;;;;;;21.30;45.10;;;;;;5112727;28;19924;-40
2022/01/13 08:39:42;;;;;;;;;;;21.30;45.10;;;;;;5114361;28;20283;-42
2022/01/13 08:42:10;;;;;;;;;;;21.30;45.00;;;;;;5114869;28;20010;-41
2022/01/13 08:44:38;;;;;;;;;;;21.30;45.00;;;;;;5101049;28;19973;-41
2022/01/13 08:47:05;;;;;;;;;;;21.30;45.00;;;;;;5117445;27;19924;-44
2022/01/13 08:49:33;;;;;;;;;;;21.30;45.00;;;;;;5123292;27;19927;-40
2022/01/13 08:52:00;;;;;;;;;;;21.30;45.00;;;;;;5117720;27;19949;-46
2022/01/13 08:54:27;;;;;;;;;;;21.40;45.10;;;;;;5133033;27;20014;-41
2022/01/13 08:56:56;;;;;;;;;;;21.30;45.00;;;;;;5099931;28;19923;-43
2022/01/13 08:59:23;;;;;;;;;;;21.40;45.00;;;;;;5118575;27;19984;-44
2022/01/13 09:01:50;;;;;;;;;;;21.40;45.00;;;;;;5117650;27;19927;-42
2022/01/13 09:04:18;;;;;;;;;;;21.40;45.00;;;;;;5117505;27;19927;-41
2022/01/13 09:06:45;;;;;;;;;;;21.40;44.90;;;;;;5118282;27;19924;-43
2022/01/13 09:09:14;;;;;;;;;;;21.40;44.90;;;;;;5116061;28;20438;-40
2022/01/13 09:11:42;;;;;;;;;;;21.40;44.80;;;;;;5099604;28;19949;-42
2022/01/13 09:14:09;;;;;;;;;;;21.40;44.80;;;;;;5118140;27;19924;-43
2022/01/13 09:16:43;;;;;;;;;;;21.40;44.80;;;;;;5118486;27;19928;-40
2022/01/13 09:19:12;;;;;;;;;;;21.40;44.70;;;;;;5115669;28;19931;-44
2022/01/13 09:21:40;;;;;;;;;;;21.50;44.80;;;;;;5116189;27;19927;-40
2022/01/13 09:24:09;;;;;;;;;;;21.50;44.70;;;;;;5115686;28;19955;-42
2022/01/13 09:26:36;;;;;;;;;;;21.50;44.70;;;;;;5118483;27;20340;-41
2022/01/13 09:29:07;;;;;;;;;;;21.50;44.70;;;;;;5115384;28;19973;-41
2022/01/13 09:31:36;;;;;;;;;;;21.50;44.50;;;;;;5129153;27;19923;-41
2022/01/13 09:34:04;;;;;;;;;;;21.50;44.50;;;;;;5134668;27;20438;-42
2022/01/13 09:36:32;;;;;;;;;;;21.60;44.50;;;;;;5122632;27;20410;-41
2022/01/13 09:39:01;;;;;;;;;;;21.60;44.50;;;;;;5118208;27;20069;-42
2022/01/13 09:41:30;;;;;;;;;;;21.60;44.40;;;;;;5115754;28;19923;-42
2022/01/13 09:43:58;;;;;;;;;;;21.60;44.40;;;;;;5116510;27;19978;-43
2022/01/13 09:46:27;;;;;;;;;;;21.60;44.30;;;;;;5115299;28;20454;-41
2022/01/13 09:48:55;;;;;;;;;;;21.60;44.30;;;;;;5116764;27;19924;-43
2022/01/13 09:51:25;;;;;;;;;;;21.70;44.30;;;;;;5116514;27;19959;-42
2022/01/13 09:53:53;;;;;;;;;;;21.70;44.30;;;;;;5098753;28;20037;-48
2022/01/13 09:56:20;;;;;;;;;;;21.70;44.20;;;;;;5116239;27;20010;-49
2022/01/13 09:58:47;;;;;;;;;;;21.70;44.20;;;;;;5114785;28;19924;-47
2022/01/13 10:01:14;;;;;;;;;;;21.70;44.10;;;;;;5115217;28;20026;-45
2022/01/13 10:03:42;;;;;;;;;;;21.70;44.10;;;;;;5116519;27;19932;-45
2022/01/13 10:06:10;;;;;;;;;;;21.70;44.10;;;;;;5117254;27;19967;-44
2022/01/13 10:08:45;;;;;;;;;;;21.70;44.10;;;;;;5116487;27;19924;-42
2022/01/13 10:11:27;;;;;;;;;;;21.70;44.00;;;;;;5116184;27;19923;-42
2022/01/13 10:14:04;;;;;;;;;;;21.80;44.10;;;;;;5118766;27;20351;-42
2022/01/13 10:16:31;;;;;;;;;;;21.80;44.00;;;;;;5131754;27;19939;-40
2022/01/13 10:18:58;;;;;;;;;;;21.80;44.00;;;;;;5116665;27;19955;-45
2022/01/13 10:21:25;;;;;;;;;;;21.80;43.90;;;;;;5133322;27;20422;-45
2022/01/13 10:24:02;;;;;;;;;;;21.80;43.90;;;;;;5115560;27;19970;-40
2022/01/13 10:26:30;;;;;;;;;;;21.80;43.90;;;;;;5114911;28;20285;-44
2022/01/13 10:28:57;;;;;;;;;;;21.80;43.90;;;;;;5115706;27;20379;-46
2022/01/13 10:31:45;;;;;;;;;;;21.80;43.80;;;;;;5114519;28;19931;-40
2022/01/13 10:34:21;;;;;;;;;;;21.80;43.80;;;;;;5115404;27;19932;-43
2022/01/13 10:37:17;;;;;;;;;;;21.80;43.70;;;;;;5116716;27;20442;-42
2022/01/13 10:39:44;;;;;;;;;;;21.90;43.80;;;;;;5032977;28;19925;-42
2022/01/13 10:42:21;;;;;;;;;;;21.90;43.80;;;;;;5034996;28;19933;-40
2022/01/13 10:44:56;;;;;;;;;;;21.90;43.70;;;;;;5047205;28;19925;-47
2022/01/13 10:47:23;;;;;;;;;;;21.90;43.70;;;;;;5032839;28;19925;-40
2022/01/13 10:49:50;;;;;;;;;;;21.90;43.60;;;;;;5035141;28;19929;-43
2022/01/13 10:52:23;;;;;;;;;;;22.00;43.70;;;;;;5048771;28;19982;-40
2022/01/13 10:54:52;;;;;;;;;;;22.00;43.60;;;;;;5049993;28;19932;-40
2022/01/13 10:57:20;;;;;;;;;;;22.00;43.50;;;;;;5032846;28;19925;-41
2022/01/13 10:59:48;;;;;;;;;;;22.00;43.50;;;;;;5032767;28;20405;-42
2022/01/13 11:02:17;;;;;;;;;;;22.00;43.40;;;;;;5050277;28;19931;-43
2022/01/13 11:04:44;;;;;;;;;;;22.10;43.50;;;;;;5032177;28;20000;-39
2022/01/13 11:07:23;;;;;;;;;;;22.10;43.30;;;;;;5032259;28;19983;-43
2022/01/13 11:09:52;;;;;;;;;;;22.10;43.30;;;;;;5033111;28;19943;-41
2022/01/13 11:12:31;;;;;;;;;;;22.10;43.20;;;;;;5048716;28;19947;-43
2022/01/13 11:15:03;;;;;;;;;;;22.10;43.10;;;;;;5049312;28;20007;-38
2022/01/13 11:17:33;;;;;;;;;;;22.20;43.20;;;;;;5114780;27;19968;-39
2022/01/13 11:20:03;;;;;;;;;;;22.20;43.10;;;;;;5101810;27;19924;-39
2022/01/13 11:22:34;;;;;;;;;;;22.20;43.20;;;;;;5095362;28;20018;-40
2022/01/13 11:25:11;;;;;;;;;;;22.20;43.10;;;;;;5094318;28;19928;-40
2022/01/13 11:27:39;;;;;;;;;;;22.20;43.10;;;;;;5094375;28;20395;-38
2022/01/13 11:30:08;;;;;;;;;;;22.20;43.10;;;;;;5109256;28;19973;-41
2022/01/13 11:32:35;;;;;;;;;;;22.20;43.10;;;;;;5096577;28;19967;-39
2022/01/13 11:35:03;;;;;;;;;;;22.20;43.10;;;;;;5109926;28;19963;-41
2022/01/13 11:37:30;;;;;;;;;;;22.20;43.10;;;;;;5097415;28;19928;-40
2022/01/13 11:39:58;;;;;;;;;;;22.20;43.10;;;;;;5105857;28;19966;-40
2022/01/13 11:42:46;;;;;;;;;;;22.20;43.00;;;;;;5097464;28;19924;-41
2022/01/13 11:45:14;;;;;;;;;;;22.20;43.00;;;;;;5106850;28;19924;-40
2022/01/13 11:47:42;;;;;;;;;;;22.20;43.00;;;;;;5099029;28;19924;-38
2022/01/13 11:50:19;;;;;;;;;;;22.20;43.00;;;;;;5093038;28;20003;-39
2022/01/13 11:52:51;;;;;;;;;;;22.20;43.00;;;;;;5092929;28;19969;-39
2022/01/13 11:55:19;;;;;;;;;;;22.20;43.00;;;;;;5094508;28;19998;-39
2022/01/13 11:58:12;;;;;;;;;;;22.20;43.00;;;;;;5092883;28;19928;-42
2022/01/13 12:00:41;;;;;;;;;;;22.20;42.90;;;;;;5092802;28;19954;-41
2022/01/13 12:03:21;;;;;;;;;;;22.20;43.00;;;;;;5094589;28;19924;-42
2022/01/13 12:05:48;;;;;;;;;;;22.20;42.90;;;;;;5094360;28;20014;-40
2022/01/13 12:08:35;;;;;;;;;;;22.30;43.00;;;;;;5095276;28;20276;-44
2022/01/13 12:11:02;;;;;;;;;;;22.30;42.90;;;;;;5092481;28;20011;-41
2022/01/13 12:13:35;;;;;;;;;;;22.30;42.90;;;;;;5093646;28;19932;-42
2022/01/13 12:16:03;;;;;;;;;;;22.30;42.90;;;;;;5092810;28;20338;-42
2022/01/13 12:18:42;;;;;;;;;;;22.30;42.90;;;;;;5096807;28;20026;-40
2022/01/13 12:21:32;;;;;;;;;;;22.30;42.90;;;;;;5094202;28;19928;-42
2022/01/13 12:24:00;;;;;;;;;;;22.30;42.80;;;;;;5098617;28;20034;-42
2022/01/13 12:26:33;;;;;;;;;;;22.40;42.80;;;;;;5107385;28;20332;-45
2022/01/13 12:29:19;;;;;;;;;;;22.40;42.80;;;;;;5100591;28;20345;-40
2022/01/13 12:31:49;;;;;;;;;;;22.40;42.70;;;;;;5115817;28;19924;-39
2022/01/13 12:34:28;;;;;;;;;;;22.40;42.70;;;;;;5096790;28;19928;-38
2022/01/13 12:36:56;;;;;;;;;;;22.40;42.70;;;;;;5078473;28;19925;-40
2022/01/13 12:39:24;;;;;;;;;;;22.40;42.70;;;;;;5098721;28;19953;-42
2022/01/13 12:41:58;;;;;;;;;;;22.40;42.70;;;;;;5098727;28;19959;-39
2022/01/13 12:47:11;;;;;;;;;;;22.40;42.60;;;;;;5097304;28;19947;-40
2022/01/13 12:49:50;;;;;;;;;;;22.40;42.60;;;;;;5097414;28;19928;-39
2022/01/13 12:52:24;;;;;;;;;;;22.40;42.60;;;;;;5097782;28;19934;-40
2022/01/13 12:54:51;;;;;;;;;;;22.40;43.10;;;;;;5113515;28;19980;-39
2022/01/13 12:57:21;;;;;;;;;;;22.50;42.60;;;;;;5099331;28;19957;-40
2022/01/13 12:59:54;;;;;;;;;;;22.50;42.60;;;;;;5096672;28;20368;-42
2022/01/13 13:02:21;;;;;;;;;;;22.50;42.50;;;;;;5096161;28;20014;-40
2022/01/13 13:04:48;;;;;;;;;;;22.50;42.50;;;;;;5096613;28;19924;-39
2022/01/13 13:07:15;;;;;;;;;;;22.50;42.50;;;;;;5097236;28;19955;-38
2022/01/13 13:09:42;;;;;;;;;;;22.50;42.50;;;;;;5098032;28;19974;-40
2022/01/13 13:12:13;;;;;;;;;;;22.50;42.50;;;;;;5096858;28;19977;-42
2022/01/13 13:15:40;;;;;;;;;;;22.50;42.50;;;;;;5097972;28;19928;-39
2022/01/13 13:17:29;;;;;;;;;;;22.50;42.50;;;;;;5095429;28;19924;-39
2022/01/13 13:19:56;;;;;;;;;;;22.50;42.40;;;;;;5095273;28;20002;-39
2022/01/13 13:22:23;;;;;;;;;;;22.50;42.40;;;;;;5097992;28;20418;-38
2022/01/13 13:24:50;;;;;;;;;;;22.50;42.50;;;;;;5095160;28;20403;-39
2022/01/13 13:27:30;;;;;;;;;;;22.50;42.50;;;;;;5096495;28;19981;-39
2022/01/13 13:29:57;;;;;;;;;;;22.50;42.50;;;;;;5094991;28;19963;-39
2022/01/13 13:32:24;;;;;;;;;;;22.50;42.50;;;;;;5096702;28;19928;-41
2022/01/13 13:34:51;;;;;;;;;;;22.50;42.50;;;;;;5096813;28;20034;-42
2022/01/13 13:37:18;;;;;;;;;;;22.50;42.50;;;;;;5096791;28;20295;-39
2022/01/13 13:39:45;;;;;;;;;;;22.50;42.50;;;;;;5095045;28;19924;-39
2022/01/13 13:42:13;;;;;;;;;;;22.50;42.50;;;;;;5094959;28;20015;-40
2022/01/13 13:44:42;;;;;;;;;;;22.50;42.50;;;;;;5101588;28;20006;-38
2022/01/13 13:47:18;;;;;;;;;;;22.50;42.50;;;;;;5113961;28;19966;-38
2022/01/13 13:49:51;;;;;;;;;;;22.50;42.50;;;;;;5113807;28;19975;-40
2022/01/13 13:52:18;;;;;;;;;;;22.50;42.50;;;;;;5110715;28;19934;-40
2022/01/13 13:54:52;;;;;;;;;;;22.50;42.50;;;;;;5097051;28;19938;-38
2022/01/13 13:57:26;;;;;;;;;;;22.50;42.50;;;;;;5110349;28;19950;-39
2022/01/13 13:59:54;;;;;;;;;;;22.50;42.50;;;;;;5094949;28;20319;-38
2022/01/13 14:02:29;;;;;;;;;;;22.50;42.50;;;;;;5096084;28;20355;-40
2022/01/13 14:04:59;;;;;;;;;;;22.50;42.50;;;;;;5096163;28;19925;-38
2022/01/13 14:07:31;;;;;;;;;;;22.50;42.50;;;;;;5111656;28;19988;-38
2022/01/13 14:10:04;;;;;;;;;;;22.50;42.50;;;;;;5096828;28;19974;-40
2022/01/13 14:12:34;;;;;;;;;;;22.50;42.50;;;;;;5094509;28;20438;-38
2022/01/13 14:15:11;;;;;;;;;;;22.50;42.50;;;;;;5095522;28;19925;-42
2022/01/13 14:17:38;;;;;;;;;;;22.50;42.50;;;;;;5097254;28;19924;-41
2022/01/13 14:20:08;;;;;;;;;;;22.50;42.50;;;;;;5126745;27;19986;-42
2022/01/13 14:22:35;;;;;;;;;;;22.50;42.50;;;;;;5114903;28;20320;-42
2022/01/13 14:25:08;;;;;;;;;;;22.50;42.50;;;;;;5114453;28;19927;-38
2022/01/13 14:27:48;;;;;;;;;;;22.50;42.50;;;;;;5134129;27;19959;-41
2022/01/13 14:30:24;;;;;;;;;;;22.50;42.50;;;;;;5134839;27;19966;-40
2022/01/13 14:32:51;;;;;;;;;;;22.50;42.50;;;;;;5115954;27;20323;-39
2022/01/13 14:35:26;;;;;;;;;;;22.50;42.50;;;;;;5115855;27;20005;-38
2022/01/13 14:37:54;;;;;;;;;;;22.50;42.60;;;;;;5114655;28;19971;-37
2022/01/13 14:40:21;;;;;;;;;;;22.50;42.60;;;;;;5096840;28;19998;-39
2022/01/13 14:42:48;;;;;;;;;;;22.40;42.50;;;;;;5115762;27;19924;-40
2022/01/13 14:45:22;;;;;;;;;;;22.40;42.50;;;;;;5114606;28;20299;-39
2022/01/13 14:47:51;;;;;;;;;;;22.40;42.50;;;;;;5133857;27;20027;-40